sensor_id;sensor_type;location;lat;lon;timestamp;P1;durP1;ratioP1;P2;durP2;ratioP2
24567;SDS011;12731;52.182;8.716;2023-11-21T00:01:59;47.95;;;28.35;;
24567;SDS011;12731;52.182;8.716;2023-11-21T00:04:26;53.08;;;28.10;;
24567;SDS011;12731;52.182;8.716;2023-11-21T00:06:54;51.85;;;27.83;;
24567;SDS011;12731;52.182;8.716;2023-11-21T00:09:21;47.20;;;28.83;;
24567;SDS011;12731;52.182;8.716;2023-11-21T00:11:47;54.38;;;29.52;;
24567;SDS011;12731;52.182;8.716;2023-11-21T00:14:14;62.55;;;30.27;;
24567;SDS011;12731;52.182;8.716;2023-11-21T00:16:41;61.42;;;31.30;;
24567;SDS011;12731;52.182;8.716;2023-11-21T00:19:07;61.10;;;30.17;;
24567;SDS011;12731;52.182;8.716;2023-11-21T00:21:34;54.42;;;30.38;;
24567;SDS011;12731;52.182;8.716;2023-11-21T00:24:00;57.88;;;29.40;;
24567;SDS011;12731;52.182;8.716;2023-11-21T00:26:27;65.03;;;31.08;;
24567;SDS011;12731;52.182;8.716;2023-11-21T00:28:53;57.20;;;30.60;;
24567;SDS011;12731;52.182;8.716;2023-11-21T00:31:20;59.65;;;30.15;;
24567;SDS011;12731;52.182;8.716;2023-11-21T00:33:46;63.55;;;31.23;;
24567;SDS011;12731;52.182;8.716;2023-11-21T00:36:13;59.45;;;30.05;;
24567;SDS011;12731;52.182;8.716;2023-11-21T00:38:39;70.20;;;30.63;;
24567;SDS011;12731;52.182;8.716;2023-11-21T00:41:06;63.72;;;31.98;;
24567;SDS011;12731;52.182;8.716;2023-11-21T00:43:32;64.00;;;29.35;;
24567;SDS011;12731;52.182;8.716;2023-11-21T00:46:05;53.38;;;27.10;;
24567;SDS011;12731;52.182;8.716;2023-11-21T00:48:35;65.82;;;31.55;;
24567;SDS011;12731;52.182;8.716;2023-11-21T00:51:01;57.53;;;30.30;;
24567;SDS011;12731;52.182;8.716;2023-11-21T00:53:28;60.47;;;29.30;;
24567;SDS011;12731;52.182;8.716;2023-11-21T00:55:54;60.58;;;29.60;;
24567;SDS011;12731;52.182;8.716;2023-11-21T00:58:23;66.10;;;30.65;;
24567;SDS011;12731;52.182;8.716;2023-11-21T01:00:50;73.38;;;30.35;;
24567;SDS011;12731;52.182;8.716;2023-11-21T01:03:17;65.50;;;29.88;;
24567;SDS011;12731;52.182;8.716;2023-11-21T01:05:43;65.18;;;30.17;;
24567;SDS011;12731;52.182;8.716;2023-11-21T01:08:11;58.90;;;29.25;;
24567;SDS011;12731;52.182;8.716;2023-11-21T01:10:37;65.80;;;29.42;;
24567;SDS011;12731;52.182;8.716;2023-11-21T01:13:04;57.50;;;28.25;;
24567;SDS011;12731;52.182;8.716;2023-11-21T01:15:31;59.17;;;28.92;;
24567;SDS011;12731;52.182;8.716;2023-11-21T01:17:57;61.58;;;28.75;;
24567;SDS011;12731;52.182;8.716;2023-11-21T01:20:24;60.20;;;29.23;;
24567;SDS011;12731;52.182;8.716;2023-11-21T01:22:51;59.03;;;28.05;;
24567;SDS011;12731;52.182;8.716;2023-11-21T01:25:17;63.20;;;29.55;;
24567;SDS011;12731;52.182;8.716;2023-11-21T01:27:44;68.15;;;30.55;;
24567;SDS011;12731;52.182;8.716;2023-11-21T01:30:11;57.90;;;27.73;;
24567;SDS011;12731;52.182;8.716;2023-11-21T01:32:37;64.38;;;28.85;;
24567;SDS011;12731;52.182;8.716;2023-11-21T01:35:05;61.13;;;27.52;;
24567;SDS011;12731;52.182;8.716;2023-11-21T01:37:32;56.60;;;27.20;;
24567;SDS011;12731;52.182;8.716;2023-11-21T01:39:59;60.05;;;26.52;;
24567;SDS011;12731;52.182;8.716;2023-11-21T01:42:27;55.22;;;26.13;;
24567;SDS011;12731;52.182;8.716;2023-11-21T01:44:55;56.25;;;26.65;;
24567;SDS011;12731;52.182;8.716;2023-11-21T01:47:22;57.53;;;25.83;;
24567;SDS011;12731;52.182;8.716;2023-11-21T01:49:48;60.10;;;27.05;;
24567;SDS011;12731;52.182;8.716;2023-11-21T01:52:15;60.60;;;27.60;;
24567;SDS011;12731;52.182;8.716;2023-11-21T01:54:41;64.55;;;28.05;;
24567;SDS011;12731;52.182;8.716;2023-11-21T01:57:08;64.40;;;28.70;;
24567;SDS011;12731;52.182;8.716;2023-11-21T01:59:38;63.42;;;28.15;;
24567;SDS011;12731;52.182;8.716;2023-11-21T02:02:05;58.45;;;28.92;;
24567;SDS011;12731;52.182;8.716;2023-11-21T02:04:33;54.75;;;27.02;;
24567;SDS011;12731;52.182;8.716;2023-11-21T02:07:00;56.83;;;26.63;;
24567;SDS011;12731;52.182;8.716;2023-11-21T02:09:27;46.05;;;23.88;;
24567;SDS011;12731;52.182;8.716;2023-11-21T02:11:54;50.65;;;26.98;;
24567;SDS011;12731;52.182;8.716;2023-11-21T02:14:24;42.92;;;24.23;;
24567;SDS011;12731;52.182;8.716;2023-11-21T02:16:52;53.05;;;25.85;;
24567;SDS011;12731;52.182;8.716;2023-11-21T02:19:20;50.88;;;25.30;;
24567;SDS011;12731;52.182;8.716;2023-11-21T02:21:52;50.20;;;25.17;;
24567;SDS011;12731;52.182;8.716;2023-11-21T02:24:19;54.95;;;24.25;;
24567;SDS011;12731;52.182;8.716;2023-11-21T02:26:49;51.97;;;24.83;;
24567;SDS011;12731;52.182;8.716;2023-11-21T02:29:19;51.38;;;24.23;;
24567;SDS011;12731;52.182;8.716;2023-11-21T02:31:52;50.70;;;23.40;;
24567;SDS011;12731;52.182;8.716;2023-11-21T02:36:47;50.47;;;23.75;;
24567;SDS011;12731;52.182;8.716;2023-11-21T02:39:17;49.97;;;24.75;;
24567;SDS011;12731;52.182;8.716;2023-11-21T02:41:44;46.65;;;23.48;;
24567;SDS011;12731;52.182;8.716;2023-11-21T02:44:10;51.50;;;25.40;;
24567;SDS011;12731;52.182;8.716;2023-11-21T02:46:37;44.03;;;23.75;;
24567;SDS011;12731;52.182;8.716;2023-11-21T02:49:06;52.08;;;24.23;;
24567;SDS011;12731;52.182;8.716;2023-11-21T02:51:32;49.80;;;24.63;;
24567;SDS011;12731;52.182;8.716;2023-11-21T02:54:00;57.70;;;25.15;;
24567;SDS011;12731;52.182;8.716;2023-11-21T02:56:29;50.60;;;23.40;;
24567;SDS011;12731;52.182;8.716;2023-11-21T02:58:55;48.00;;;24.30;;
24567;SDS011;12731;52.182;8.716;2023-11-21T03:01:23;50.67;;;23.70;;
24567;SDS011;12731;52.182;8.716;2023-11-21T03:03:50;52.95;;;22.98;;
24567;SDS011;12731;52.182;8.716;2023-11-21T03:06:19;54.38;;;24.60;;
24567;SDS011;12731;52.182;8.716;2023-11-21T03:08:46;53.70;;;23.50;;
24567;SDS011;12731;52.182;8.716;2023-11-21T03:11:13;46.85;;;21.88;;
24567;SDS011;12731;52.182;8.716;2023-11-21T03:13:40;56.33;;;24.60;;
24567;SDS011;12731;52.182;8.716;2023-11-21T03:16:11;55.42;;;23.58;;
24567;SDS011;12731;52.182;8.716;2023-11-21T03:18:38;49.65;;;23.17;;
24567;SDS011;12731;52.182;8.716;2023-11-21T03:21:05;52.20;;;24.48;;
24567;SDS011;12731;52.182;8.716;2023-11-21T03:23:32;52.45;;;23.20;;
24567;SDS011;12731;52.182;8.716;2023-11-21T03:25:58;55.15;;;24.13;;
24567;SDS011;12731;52.182;8.716;2023-11-21T03:28:26;50.13;;;24.00;;
24567;SDS011;12731;52.182;8.716;2023-11-21T03:30:54;54.17;;;24.35;;
24567;SDS011;12731;52.182;8.716;2023-11-21T03:33:20;52.10;;;23.15;;
24567;SDS011;12731;52.182;8.716;2023-11-21T03:35:47;57.72;;;25.67;;
24567;SDS011;12731;52.182;8.716;2023-11-21T03:38:13;52.75;;;23.15;;
24567;SDS011;12731;52.182;8.716;2023-11-21T03:40:40;59.45;;;25.48;;
24567;SDS011;12731;52.182;8.716;2023-11-21T03:43:06;56.28;;;23.35;;
24567;SDS011;12731;52.182;8.716;2023-11-21T03:45:33;50.92;;;23.13;;
24567;SDS011;12731;52.182;8.716;2023-11-21T03:47:59;59.83;;;24.48;;
24567;SDS011;12731;52.182;8.716;2023-11-21T03:50:30;56.80;;;25.40;;
24567;SDS011;12731;52.182;8.716;2023-11-21T03:52:57;55.75;;;24.35;;
24567;SDS011;12731;52.182;8.716;2023-11-21T03:55:23;67.15;;;25.05;;
24567;SDS011;12731;52.182;8.716;2023-11-21T03:57:51;64.30;;;23.98;;
24567;SDS011;12731;52.182;8.716;2023-11-21T04:00:18;56.63;;;24.15;;
24567;SDS011;12731;52.182;8.716;2023-11-21T04:02:46;54.25;;;24.45;;
24567;SDS011;12731;52.182;8.716;2023-11-21T04:05:13;62.75;;;25.10;;
24567;SDS011;12731;52.182;8.716;2023-11-21T04:07:40;50.53;;;24.05;;
24567;SDS011;12731;52.182;8.716;2023-11-21T04:10:07;62.88;;;25.50;;
24567;SDS011;12731;52.182;8.716;2023-11-21T04:12:35;63.33;;;26.63;;
24567;SDS011;12731;52.182;8.716;2023-11-21T04:15:02;61.13;;;25.20;;
24567;SDS011;12731;52.182;8.716;2023-11-21T04:17:29;65.53;;;26.80;;
24567;SDS011;12731;52.182;8.716;2023-11-21T04:19:56;61.10;;;24.52;;
24567;SDS011;12731;52.182;8.716;2023-11-21T04:22:23;60.70;;;25.85;;
24567;SDS011;12731;52.182;8.716;2023-11-21T04:24:49;62.97;;;25.50;;
24567;SDS011;12731;52.182;8.716;2023-11-21T04:27:16;61.58;;;24.30;;
24567;SDS011;12731;52.182;8.716;2023-11-21T04:29:44;58.08;;;22.73;;
24567;SDS011;12731;52.182;8.716;2023-11-21T04:32:10;56.40;;;23.90;;
24567;SDS011;12731;52.182;8.716;2023-11-21T04:34:37;58.05;;;22.95;;
24567;SDS011;12731;52.182;8.716;2023-11-21T04:37:03;55.20;;;22.92;;
24567;SDS011;12731;52.182;8.716;2023-11-21T04:39:32;55.22;;;23.67;;
24567;SDS011;12731;52.182;8.716;2023-11-21T04:41:59;58.53;;;22.67;;
24567;SDS011;12731;52.182;8.716;2023-11-21T04:44:25;56.67;;;23.48;;
24567;SDS011;12731;52.182;8.716;2023-11-21T04:46:51;62.42;;;24.92;;
24567;SDS011;12731;52.182;8.716;2023-11-21T04:49:18;53.42;;;22.90;;
24567;SDS011;12731;52.182;8.716;2023-11-21T04:51:44;61.83;;;23.75;;
24567;SDS011;12731;52.182;8.716;2023-11-21T04:54:11;61.88;;;23.95;;
24567;SDS011;12731;52.182;8.716;2023-11-21T04:56:37;55.60;;;23.75;;
24567;SDS011;12731;52.182;8.716;2023-11-21T04:59:04;55.83;;;24.20;;
24567;SDS011;12731;52.182;8.716;2023-11-21T05:01:30;56.85;;;23.38;;
24567;SDS011;12731;52.182;8.716;2023-11-21T05:03:57;60.55;;;24.40;;
24567;SDS011;12731;52.182;8.716;2023-11-21T05:06:24;62.05;;;23.17;;
24567;SDS011;12731;52.182;8.716;2023-11-21T05:08:50;61.42;;;23.30;;
24567;SDS011;12731;52.182;8.716;2023-11-21T05:11:23;56.63;;;23.10;;
24567;SDS011;12731;52.182;8.716;2023-11-21T05:13:53;53.05;;;21.33;;
24567;SDS011;12731;52.182;8.716;2023-11-21T05:16:21;47.15;;;19.88;;
24567;SDS011;12731;52.182;8.716;2023-11-21T05:18:48;53.30;;;20.92;;
24567;SDS011;12731;52.182;8.716;2023-11-21T05:21:16;48.20;;;19.65;;
24567;SDS011;12731;52.182;8.716;2023-11-21T05:23:43;46.28;;;20.73;;
24567;SDS011;12731;52.182;8.716;2023-11-21T05:26:09;49.08;;;20.17;;
24567;SDS011;12731;52.182;8.716;2023-11-21T05:28:36;51.22;;;20.90;;
24567;SDS011;12731;52.182;8.716;2023-11-21T05:31:02;49.72;;;20.48;;
24567;SDS011;12731;52.182;8.716;2023-11-21T05:33:41;46.28;;;20.70;;
24567;SDS011;12731;52.182;8.716;2023-11-21T05:36:08;48.42;;;20.65;;
24567;SDS011;12731;52.182;8.716;2023-11-21T05:38:36;52.78;;;22.05;;
24567;SDS011;12731;52.182;8.716;2023-11-21T05:41:02;43.95;;;19.33;;
24567;SDS011;12731;52.182;8.716;2023-11-21T05:43:30;43.13;;;19.05;;
24567;SDS011;12731;52.182;8.716;2023-11-21T05:45:56;49.30;;;20.92;;
24567;SDS011;12731;52.182;8.716;2023-11-21T05:48:23;47.10;;;20.77;;
24567;SDS011;12731;52.182;8.716;2023-11-21T05:50:49;46.05;;;21.35;;
24567;SDS011;12731;52.182;8.716;2023-11-21T05:53:16;47.63;;;20.65;;
24567;SDS011;12731;52.182;8.716;2023-11-21T05:55:42;42.70;;;20.95;;
24567;SDS011;12731;52.182;8.716;2023-11-21T05:58:09;41.97;;;19.35;;
24567;SDS011;12731;52.182;8.716;2023-11-21T06:00:36;43.20;;;19.92;;
24567;SDS011;12731;52.182;8.716;2023-11-21T06:03:03;46.75;;;20.42;;
24567;SDS011;12731;52.182;8.716;2023-11-21T06:05:30;49.63;;;21.52;;
24567;SDS011;12731;52.182;8.716;2023-11-21T06:07:58;44.05;;;20.23;;
24567;SDS011;12731;52.182;8.716;2023-11-21T06:10:25;46.85;;;21.40;;
24567;SDS011;12731;52.182;8.716;2023-11-21T06:12:52;43.65;;;21.02;;
24567;SDS011;12731;52.182;8.716;2023-11-21T06:15:18;51.80;;;21.30;;
24567;SDS011;12731;52.182;8.716;2023-11-21T06:17:47;43.80;;;20.45;;
24567;SDS011;12731;52.182;8.716;2023-11-21T06:20:18;50.28;;;21.60;;
24567;SDS011;12731;52.182;8.716;2023-11-21T06:22:45;53.65;;;23.63;;
24567;SDS011;12731;52.182;8.716;2023-11-21T06:25:13;53.53;;;22.55;;
24567;SDS011;12731;52.182;8.716;2023-11-21T06:27:40;53.10;;;23.65;;
24567;SDS011;12731;52.182;8.716;2023-11-21T06:30:08;48.28;;;22.05;;
24567;SDS011;12731;52.182;8.716;2023-11-21T06:32:38;51.03;;;22.42;;
24567;SDS011;12731;52.182;8.716;2023-11-21T06:35:06;58.53;;;23.42;;
24567;SDS011;12731;52.182;8.716;2023-11-21T06:37:32;60.30;;;24.58;;
24567;SDS011;12731;52.182;8.716;2023-11-21T06:39:59;55.90;;;22.85;;
24567;SDS011;12731;52.182;8.716;2023-11-21T06:42:26;55.45;;;22.58;;
24567;SDS011;12731;52.182;8.716;2023-11-21T06:44:53;61.22;;;24.58;;
24567;SDS011;12731;52.182;8.716;2023-11-21T06:47:25;58.90;;;24.67;;
24567;SDS011;12731;52.182;8.716;2023-11-21T06:49:56;55.95;;;23.05;;
24567;SDS011;12731;52.182;8.716;2023-11-21T06:52:23;61.03;;;23.75;;
24567;SDS011;12731;52.182;8.716;2023-11-21T06:54:49;55.58;;;23.27;;
24567;SDS011;12731;52.182;8.716;2023-11-21T06:57:16;55.25;;;23.33;;
24567;SDS011;12731;52.182;8.716;2023-11-21T06:59:43;59.95;;;24.33;;
24567;SDS011;12731;52.182;8.716;2023-11-21T07:02:09;56.00;;;24.20;;
24567;SDS011;12731;52.182;8.716;2023-11-21T07:04:36;54.63;;;23.58;;
24567;SDS011;12731;52.182;8.716;2023-11-21T07:07:03;58.92;;;23.85;;
24567;SDS011;12731;52.182;8.716;2023-11-21T07:09:30;53.05;;;23.77;;
24567;SDS011;12731;52.182;8.716;2023-11-21T07:11:57;55.78;;;24.02;;
24567;SDS011;12731;52.182;8.716;2023-11-21T07:14:23;59.88;;;24.30;;
24567;SDS011;12731;52.182;8.716;2023-11-21T07:16:50;53.35;;;22.80;;
24567;SDS011;12731;52.182;8.716;2023-11-21T07:19:17;56.88;;;23.50;;
24567;SDS011;12731;52.182;8.716;2023-11-21T07:21:43;49.78;;;21.95;;
24567;SDS011;12731;52.182;8.716;2023-11-21T07:24:10;53.38;;;22.73;;
24567;SDS011;12731;52.182;8.716;2023-11-21T07:26:37;60.63;;;23.65;;
24567;SDS011;12731;52.182;8.716;2023-11-21T07:29:04;43.25;;;20.52;;
24567;SDS011;12731;52.182;8.716;2023-11-21T07:31:32;45.03;;;20.63;;
24567;SDS011;12731;52.182;8.716;2023-11-21T07:34:00;38.78;;;18.30;;
24567;SDS011;12731;52.182;8.716;2023-11-21T07:36:27;35.75;;;17.13;;
24567;SDS011;12731;52.182;8.716;2023-11-21T07:38:53;35.03;;;16.70;;
24567;SDS011;12731;52.182;8.716;2023-11-21T07:41:20;34.65;;;16.85;;
24567;SDS011;12731;52.182;8.716;2023-11-21T07:43:56;27.85;;;15.02;;
24567;SDS011;12731;52.182;8.716;2023-11-21T07:46:26;27.45;;;14.50;;
24567;SDS011;12731;52.182;8.716;2023-11-21T07:48:53;27.45;;;14.25;;
24567;SDS011;12731;52.182;8.716;2023-11-21T07:51:21;26.33;;;14.02;;
24567;SDS011;12731;52.182;8.716;2023-11-21T07:53:48;26.58;;;14.23;;
24567;SDS011;12731;52.182;8.716;2023-11-21T07:56:14;23.38;;;13.00;;
24567;SDS011;12731;52.182;8.716;2023-11-21T07:58:41;23.73;;;14.35;;
24567;SDS011;12731;52.182;8.716;2023-11-21T08:01:09;23.00;;;13.05;;
24567;SDS011;12731;52.182;8.716;2023-11-21T08:03:36;24.85;;;13.77;;
24567;SDS011;12731;52.182;8.716;2023-11-21T08:06:02;22.75;;;12.85;;
24567;SDS011;12731;52.182;8.716;2023-11-21T08:08:31;20.05;;;12.57;;
24567;SDS011;12731;52.182;8.716;2023-11-21T08:10:58;20.38;;;11.80;;
24567;SDS011;12731;52.182;8.716;2023-11-21T08:13:26;19.90;;;12.68;;
24567;SDS011;12731;52.182;8.716;2023-11-21T08:15:55;20.30;;;12.13;;
24567;SDS011;12731;52.182;8.716;2023-11-21T08:18:29;17.88;;;10.63;;
24567;SDS011;12731;52.182;8.716;2023-11-21T08:20:56;19.52;;;11.57;;
24567;SDS011;12731;52.182;8.716;2023-11-21T08:23:22;20.23;;;12.68;;
24567;SDS011;12731;52.182;8.716;2023-11-21T08:25:52;24.65;;;13.88;;
24567;SDS011;12731;52.182;8.716;2023-11-21T08:28:19;18.13;;;11.63;;
24567;SDS011;12731;52.182;8.716;2023-11-21T08:30:48;18.73;;;12.52;;
24567;SDS011;12731;52.182;8.716;2023-11-21T08:33:15;18.70;;;11.10;;
24567;SDS011;12731;52.182;8.716;2023-11-21T08:35:41;15.90;;;11.65;;
24567;SDS011;12731;52.182;8.716;2023-11-21T08:38:08;18.17;;;11.65;;
24567;SDS011;12731;52.182;8.716;2023-11-21T08:40:36;16.95;;;12.02;;
24567;SDS011;12731;52.182;8.716;2023-11-21T08:43:02;16.88;;;11.25;;
24567;SDS011;12731;52.182;8.716;2023-11-21T08:45:31;16.05;;;10.70;;
24567;SDS011;12731;52.182;8.716;2023-11-21T08:47:58;15.30;;;9.98;;
24567;SDS011;12731;52.182;8.716;2023-11-21T08:50:24;14.20;;;9.52;;
24567;SDS011;12731;52.182;8.716;2023-11-21T08:52:51;12.93;;;9.02;;
24567;SDS011;12731;52.182;8.716;2023-11-21T08:55:17;12.15;;;8.88;;
24567;SDS011;12731;52.182;8.716;2023-11-21T08:57:46;13.30;;;9.15;;
24567;SDS011;12731;52.182;8.716;2023-11-21T09:00:15;11.88;;;8.82;;
24567;SDS011;12731;52.182;8.716;2023-11-21T09:02:43;13.00;;;8.48;;
24567;SDS011;12731;52.182;8.716;2023-11-21T09:05:10;12.85;;;7.88;;
24567;SDS011;12731;52.182;8.716;2023-11-21T09:07:38;15.27;;;7.90;;
24567;SDS011;12731;52.182;8.716;2023-11-21T09:10:07;12.07;;;7.57;;
24567;SDS011;12731;52.182;8.716;2023-11-21T09:12:35;13.73;;;7.15;;
24567;SDS011;12731;52.182;8.716;2023-11-21T09:15:03;17.77;;;7.65;;
24567;SDS011;12731;52.182;8.716;2023-11-21T09:17:33;12.32;;;6.88;;
24567;SDS011;12731;52.182;8.716;2023-11-21T09:20:01;12.40;;;6.22;;
24567;SDS011;12731;52.182;8.716;2023-11-21T09:22:30;10.25;;;6.78;;
24567;SDS011;12731;52.182;8.716;2023-11-21T09:25:00;10.80;;;6.25;;
24567;SDS011;12731;52.182;8.716;2023-11-21T09:27:26;8.30;;;6.18;;
24567;SDS011;12731;52.182;8.716;2023-11-21T09:29:53;11.15;;;5.80;;
24567;SDS011;12731;52.182;8.716;2023-11-21T09:32:20;8.55;;;5.63;;
24567;SDS011;12731;52.182;8.716;2023-11-21T09:34:48;11.93;;;6.05;;
24567;SDS011;12731;52.182;8.716;2023-11-21T09:37:15;7.97;;;6.25;;
24567;SDS011;12731;52.182;8.716;2023-11-21T09:39:41;9.00;;;6.55;;
24567;SDS011;12731;52.182;8.716;2023-11-21T09:42:30;9.52;;;6.40;;
24567;SDS011;12731;52.182;8.716;2023-11-21T09:47:52;7.40;;;5.53;;
24567;SDS011;12731;52.182;8.716;2023-11-21T09:50:20;6.68;;;5.40;;
24567;SDS011;12731;52.182;8.716;2023-11-21T09:52:55;10.32;;;6.20;;
24567;SDS011;12731;52.182;8.716;2023-11-21T09:55:25;7.03;;;5.50;;
24567;SDS011;12731;52.182;8.716;2023-11-21T09:57:53;9.10;;;6.03;;
24567;SDS011;12731;52.182;8.716;2023-11-21T10:00:20;9.68;;;6.50;;
24567;SDS011;12731;52.182;8.716;2023-11-21T10:02:49;8.75;;;5.47;;
24567;SDS011;12731;52.182;8.716;2023-11-21T10:05:16;9.82;;;6.13;;
24567;SDS011;12731;52.182;8.716;2023-11-21T10:07:43;7.40;;;6.07;;
24567;SDS011;12731;52.182;8.716;2023-11-21T10:10:11;8.05;;;6.30;;
24567;SDS011;12731;52.182;8.716;2023-11-21T10:12:37;8.15;;;6.53;;
24567;SDS011;12731;52.182;8.716;2023-11-21T10:15:07;10.25;;;6.95;;
24567;SDS011;12731;52.182;8.716;2023-11-21T10:17:35;11.00;;;7.18;;
24567;SDS011;12731;52.182;8.716;2023-11-21T10:20:13;10.15;;;7.80;;
24567;SDS011;12731;52.182;8.716;2023-11-21T10:22:41;10.82;;;7.28;;
24567;SDS011;12731;52.182;8.716;2023-11-21T10:25:09;9.90;;;7.10;;
24567;SDS011;12731;52.182;8.716;2023-11-21T10:27:37;9.68;;;6.65;;
24567;SDS011;12731;52.182;8.716;2023-11-21T10:30:05;9.60;;;6.78;;
24567;SDS011;12731;52.182;8.716;2023-11-21T10:32:38;8.00;;;6.32;;
24567;SDS011;12731;52.182;8.716;2023-11-21T10:35:07;8.95;;;6.60;;
24567;SDS011;12731;52.182;8.716;2023-11-21T10:37:37;9.70;;;6.18;;
24567;SDS011;12731;52.182;8.716;2023-11-21T10:40:09;10.23;;;6.88;;
24567;SDS011;12731;52.182;8.716;2023-11-21T10:42:40;10.35;;;7.25;;
24567;SDS011;12731;52.182;8.716;2023-11-21T10:45:08;9.18;;;6.60;;
24567;SDS011;12731;52.182;8.716;2023-11-21T10:47:41;10.27;;;6.88;;
24567;SDS011;12731;52.182;8.716;2023-11-21T10:50:08;9.60;;;7.50;;
24567;SDS011;12731;52.182;8.716;2023-11-21T10:52:39;10.77;;;7.38;;
24567;SDS011;12731;52.182;8.716;2023-11-21T10:55:16;12.40;;;8.63;;
24567;SDS011;12731;52.182;8.716;2023-11-21T10:57:45;13.48;;;9.80;;
24567;SDS011;12731;52.182;8.716;2023-11-21T11:00:15;15.02;;;10.20;;
24567;SDS011;12731;52.182;8.716;2023-11-21T11:02:42;15.98;;;11.35;;
24567;SDS011;12731;52.182;8.716;2023-11-21T11:05:09;18.10;;;12.13;;
24567;SDS011;12731;52.182;8.716;2023-11-21T11:07:37;16.20;;;10.85;;
24567;SDS011;12731;52.182;8.716;2023-11-21T11:10:06;15.90;;;11.38;;
24567;SDS011;12731;52.182;8.716;2023-11-21T11:12:34;14.82;;;10.90;;
24567;SDS011;12731;52.182;8.716;2023-11-21T11:15:01;16.23;;;11.05;;
24567;SDS011;12731;52.182;8.716;2023-11-21T11:17:29;16.17;;;11.07;;
24567;SDS011;12731;52.182;8.716;2023-11-21T11:19:55;15.40;;;10.90;;
24567;SDS011;12731;52.182;8.716;2023-11-21T11:22:37;15.90;;;11.73;;
24567;SDS011;12731;52.182;8.716;2023-11-21T11:27:47;15.75;;;10.35;;
24567;SDS011;12731;52.182;8.716;2023-11-21T11:36:05;17.27;;;11.48;;
24567;SDS011;12731;52.182;8.716;2023-11-21T11:38:34;18.17;;;12.10;;
24567;SDS011;12731;52.182;8.716;2023-11-21T11:41:02;17.77;;;12.77;;
24567;SDS011;12731;52.182;8.716;2023-11-21T11:43:30;17.02;;;12.50;;
24567;SDS011;12731;52.182;8.716;2023-11-21T11:46:09;18.52;;;11.75;;
24567;SDS011;12731;52.182;8.716;2023-11-21T11:48:39;17.23;;;11.52;;
24567;SDS011;12731;52.182;8.716;2023-11-21T11:51:12;18.08;;;12.02;;
24567;SDS011;12731;52.182;8.716;2023-11-21T11:53:47;14.98;;;11.05;;
24567;SDS011;12731;52.182;8.716;2023-11-21T11:56:27;15.50;;;11.75;;
24567;SDS011;12731;52.182;8.716;2023-11-21T11:58:57;15.55;;;11.93;;
24567;SDS011;12731;52.182;8.716;2023-11-21T12:01:25;15.45;;;10.95;;
24567;SDS011;12731;52.182;8.716;2023-11-21T12:06:41;13.68;;;10.95;;
24567;SDS011;12731;52.182;8.716;2023-11-21T12:09:12;16.17;;;11.32;;
24567;SDS011;12731;52.182;8.716;2023-11-21T12:11:44;16.45;;;10.57;;
24567;SDS011;12731;52.182;8.716;2023-11-21T12:14:13;15.95;;;11.50;;
24567;SDS011;12731;52.182;8.716;2023-11-21T12:16:40;16.25;;;10.90;;
24567;SDS011;12731;52.182;8.716;2023-11-21T12:19:09;14.65;;;9.90;;
24567;SDS011;12731;52.182;8.716;2023-11-21T12:21:36;14.55;;;10.32;;
24567;SDS011;12731;52.182;8.716;2023-11-21T12:24:03;12.25;;;9.90;;
24567;SDS011;12731;52.182;8.716;2023-11-21T12:26:30;12.18;;;9.18;;
24567;SDS011;12731;52.182;8.716;2023-11-21T12:28:56;11.82;;;8.77;;
24567;SDS011;12731;52.182;8.716;2023-11-21T12:31:23;10.90;;;8.82;;
24567;SDS011;12731;52.182;8.716;2023-11-21T12:33:50;11.77;;;9.23;;
24567;SDS011;12731;52.182;8.716;2023-11-21T12:36:17;12.05;;;8.77;;
24567;SDS011;12731;52.182;8.716;2023-11-21T12:38:43;13.00;;;9.15;;
24567;SDS011;12731;52.182;8.716;2023-11-21T12:41:10;11.77;;;8.82;;
24567;SDS011;12731;52.182;8.716;2023-11-21T12:43:36;12.25;;;9.25;;
24567;SDS011;12731;52.182;8.716;2023-11-21T12:46:05;10.55;;;7.88;;
24567;SDS011;12731;52.182;8.716;2023-11-21T12:48:33;13.00;;;8.85;;
24567;SDS011;12731;52.182;8.716;2023-11-21T12:50:59;11.13;;;8.23;;
24567;SDS011;12731;52.182;8.716;2023-11-21T12:53:26;10.90;;;8.05;;
24567;SDS011;12731;52.182;8.716;2023-11-21T12:55:59;9.95;;;8.00;;
24567;SDS011;12731;52.182;8.716;2023-11-21T12:58:27;9.13;;;6.97;;
24567;SDS011;12731;52.182;8.716;2023-11-21T13:00:53;9.75;;;7.55;;
24567;SDS011;12731;52.182;8.716;2023-11-21T13:03:20;9.23;;;7.35;;
24567;SDS011;12731;52.182;8.716;2023-11-21T13:05:52;10.73;;;7.20;;
24567;SDS011;12731;52.182;8.716;2023-11-21T13:08:23;10.75;;;7.60;;
24567;SDS011;12731;52.182;8.716;2023-11-21T13:10:52;10.18;;;7.68;;
24567;SDS011;12731;52.182;8.716;2023-11-21T13:13:21;8.55;;;7.25;;
24567;SDS011;12731;52.182;8.716;2023-11-21T13:15:54;12.05;;;8.30;;
24567;SDS011;12731;52.182;8.716;2023-11-21T13:18:24;9.65;;;7.20;;
24567;SDS011;12731;52.182;8.716;2023-11-21T13:20:53;9.85;;;7.28;;
24567;SDS011;12731;52.182;8.716;2023-11-21T13:23:21;10.80;;;7.40;;
24567;SDS011;12731;52.182;8.716;2023-11-21T13:25:49;11.25;;;7.78;;
24567;SDS011;12731;52.182;8.716;2023-11-21T13:28:27;10.45;;;7.57;;
24567;SDS011;12731;52.182;8.716;2023-11-21T13:30:58;9.48;;;7.32;;
24567;SDS011;12731;52.182;8.716;2023-11-21T13:33:48;11.10;;;7.82;;
24567;SDS011;12731;52.182;8.716;2023-11-21T13:36:22;10.00;;;7.10;;
24567;SDS011;12731;52.182;8.716;2023-11-21T13:38:49;10.70;;;7.50;;
24567;SDS011;12731;52.182;8.716;2023-11-21T13:41:16;10.65;;;7.30;;
24567;SDS011;12731;52.182;8.716;2023-11-21T13:43:44;10.50;;;7.50;;
24567;SDS011;12731;52.182;8.716;2023-11-21T13:46:19;9.73;;;7.35;;
24567;SDS011;12731;52.182;8.716;2023-11-21T13:48:49;9.13;;;7.20;;
24567;SDS011;12731;52.182;8.716;2023-11-21T13:51:23;9.75;;;7.25;;
24567;SDS011;12731;52.182;8.716;2023-11-21T13:53:57;9.27;;;6.70;;
24567;SDS011;12731;52.182;8.716;2023-11-21T13:56:25;9.80;;;6.65;;
24567;SDS011;12731;52.182;8.716;2023-11-21T13:58:54;8.23;;;6.75;;
24567;SDS011;12731;52.182;8.716;2023-11-21T14:01:23;11.25;;;7.00;;
24567;SDS011;12731;52.182;8.716;2023-11-21T14:03:59;8.57;;;6.90;;
24567;SDS011;12731;52.182;8.716;2023-11-21T14:06:42;11.82;;;7.45;;
24567;SDS011;12731;52.182;8.716;2023-11-21T14:09:19;10.05;;;7.13;;
24567;SDS011;12731;52.182;8.716;2023-11-21T14:11:51;10.48;;;7.70;;
24567;SDS011;12731;52.182;8.716;2023-11-21T14:14:26;8.95;;;7.93;;
24567;SDS011;12731;52.182;8.716;2023-11-21T14:16:54;10.63;;;8.27;;
24567;SDS011;12731;52.182;8.716;2023-11-21T14:19:22;14.05;;;9.40;;
24567;SDS011;12731;52.182;8.716;2023-11-21T14:21:53;12.73;;;9.45;;
24567;SDS011;12731;52.182;8.716;2023-11-21T14:24:19;10.07;;;7.53;;
24567;SDS011;12731;52.182;8.716;2023-11-21T14:26:46;10.02;;;7.80;;
24567;SDS011;12731;52.182;8.716;2023-11-21T14:29:16;11.35;;;7.85;;
24567;SDS011;12731;52.182;8.716;2023-11-21T14:31:46;10.02;;;8.00;;
24567;SDS011;12731;52.182;8.716;2023-11-21T14:34:13;10.45;;;7.78;;
24567;SDS011;12731;52.182;8.716;2023-11-21T14:36:40;8.88;;;7.47;;
24567;SDS011;12731;52.182;8.716;2023-11-21T14:39:07;10.75;;;7.18;;
24567;SDS011;12731;52.182;8.716;2023-11-21T14:41:37;8.80;;;7.30;;
24567;SDS011;12731;52.182;8.716;2023-11-21T14:44:05;11.05;;;7.65;;
24567;SDS011;12731;52.182;8.716;2023-11-21T14:46:36;9.07;;;6.75;;
24567;SDS011;12731;52.182;8.716;2023-11-21T14:49:05;9.88;;;7.28;;
24567;SDS011;12731;52.182;8.716;2023-11-21T14:51:49;9.82;;;6.50;;